createdAt,value
2019-03-10T00:02:17.062Z,6.20
2019-03-10T00:04:48.560Z,6.30
2019-03-10T00:07:20.292Z,6.40
2019-03-10T00:09:51.938Z,6.40
2019-03-10T00:12:23.680Z,6.40
2019-03-10T00:14:57.330Z,6.40
2019-03-10T00:17:29.243Z,6.60
2019-03-10T00:20:01.191Z,6.70
2019-03-10T00:22:33.079Z,6.70
2019-03-10T00:25:05.021Z,6.90
2019-03-10T00:27:36.943Z,7.00
2019-03-10T00:30:09.160Z,7.10
2019-03-10T00:32:41.073Z,7.20
2019-03-10T00:35:12.756Z,7.20
2019-03-10T00:37:44.645Z,7.20
2019-03-10T00:41:11.751Z,7.20
2019-03-10T00:44:56.990Z,7.00
2019-03-10T00:48:27.271Z,7.00
2019-03-10T00:52:03.920Z,7.00
2019-03-10T00:54:35.582Z,6.90
2019-03-10T00:57:07.646Z,6.90
2019-03-10T00:59:39.305Z,6.80
2019-03-10T01:02:10.959Z,6.80
2019-03-10T01:04:42.732Z,6.80
2019-03-10T01:07:14.415Z,6.70
2019-03-10T01:09:46.187Z,6.70
2019-03-10T01:12:17.981Z,6.60
2019-03-10T01:14:49.769Z,6.70
2019-03-10T01:17:21.966Z,6.80
2019-03-10T01:19:53.979Z,6.80
2019-03-10T01:22:26.535Z,6.90
2019-03-10T01:24:58.229Z,6.90
2019-03-10T01:27:29.858Z,7.00
2019-03-10T01:30:01.588Z,7.00
2019-03-10T01:33:41.684Z,7.00
2019-03-10T01:36:16.562Z,7.00
2019-03-10T01:38:49.449Z,7.10
2019-03-10T01:41:21.176Z,7.10
2019-03-10T01:43:53.226Z,7.00
2019-03-10T01:46:25.041Z,7.00
2019-03-10T01:48:56.662Z,7.00
2019-03-10T01:51:28.257Z,7.00
2019-03-10T01:53:59.864Z,7.00
2019-03-10T01:56:31.762Z,7.00
2019-03-10T01:59:03.432Z,7.00
2019-03-10T02:01:35.502Z,7.00
2019-03-10T02:04:07.365Z,7.00
2019-03-10T02:06:39.066Z,7.00
2019-03-10T02:09:11.013Z,7.00
2019-03-10T02:11:43.056Z,7.00
2019-03-10T02:14:14.989Z,7.00
2019-03-10T02:16:46.683Z,6.80
2019-03-10T02:19:18.191Z,6.80
2019-03-10T02:21:49.753Z,6.90
2019-03-10T02:24:24.008Z,6.90
2019-03-10T02:26:54.849Z,7.10
2019-03-10T02:29:26.734Z,7.10
2019-03-10T02:31:58.484Z,7.20
2019-03-10T02:34:29.977Z,7.20
2019-03-10T02:37:02.541Z,7.30
2019-03-10T02:39:34.216Z,7.30
2019-03-10T02:42:05.706Z,7.40
2019-03-10T02:44:40.226Z,7.50
2019-03-10T02:47:11.934Z,7.40
2019-03-10T02:49:43.751Z,7.50
2019-03-10T02:52:15.375Z,7.40
2019-03-10T02:54:47.162Z,7.40
2019-03-10T02:57:19.090Z,7.30
2019-03-10T02:59:50.763Z,7.30
2019-03-10T03:02:22.693Z,7.40
2019-03-10T03:04:54.602Z,7.40
2019-03-10T03:07:26.741Z,7.40
2019-03-10T03:09:58.275Z,7.40
2019-03-10T03:12:29.929Z,7.40
2019-03-10T03:15:01.618Z,7.50
2019-03-10T03:17:33.604Z,7.50
2019-03-10T03:20:05.628Z,7.50
2019-03-10T03:22:37.187Z,7.60
2019-03-10T03:25:09.724Z,7.70
2019-03-10T03:27:41.439Z,7.90
2019-03-10T03:30:14.886Z,8.00
2019-03-10T03:32:47.009Z,7.90
2019-03-10T03:35:56.584Z,7.90
2019-03-10T03:38:57.171Z,7.80
2019-03-10T03:41:30.953Z,7.70
2019-03-10T03:44:02.683Z,7.60
2019-03-10T03:46:34.501Z,7.50
2019-03-10T03:49:06.252Z,7.40
2019-03-10T03:51:37.826Z,7.50
2019-03-10T03:54:10.287Z,7.50
2019-03-10T03:56:42.046Z,7.50
2019-03-10T03:59:13.897Z,7.60
2019-03-10T04:01:55.595Z,7.60
2019-03-10T04:04:27.354Z,7.60
2019-03-10T04:06:58.984Z,7.70
2019-03-10T04:09:30.680Z,7.70
2019-03-10T04:12:02.398Z,7.70
2019-03-10T04:14:37.870Z,7.80
2019-03-10T04:17:09.525Z,7.80
2019-03-10T04:19:41.152Z,7.90
2019-03-10T04:22:12.857Z,8.10
2019-03-10T04:24:48.008Z,8.10
2019-03-10T04:27:19.655Z,8.10
2019-03-10T04:29:51.286Z,8.40
2019-03-10T04:32:22.715Z,8.40
2019-03-10T04:34:54.420Z,8.50
2019-03-10T04:37:26.056Z,8.50
2019-03-10T04:39:57.612Z,8.60
2019-03-10T04:42:29.322Z,8.70
2019-03-10T04:45:00.818Z,8.70
2019-03-10T04:47:32.473Z,8.80
2019-03-10T04:50:04.726Z,8.90
2019-03-10T04:52:36.545Z,9.00
2019-03-10T04:55:30.614Z,9.10
2019-03-10T04:58:04.827Z,9.20
2019-03-10T05:00:38.211Z,9.20
2019-03-10T05:03:09.960Z,9.40
2019-03-10T05:05:41.531Z,9.40
2019-03-10T05:08:13.314Z,9.50
2019-03-10T05:10:44.883Z,9.50
2019-03-10T05:13:16.356Z,9.60
2019-03-10T05:15:48.148Z,9.70
2019-03-10T05:18:19.837Z,9.70
2019-03-10T05:20:51.559Z,9.60
2019-03-10T05:23:50.720Z,9.80
2019-03-10T05:26:22.597Z,9.70
2019-03-10T05:28:54.157Z,9.80
2019-03-10T05:31:25.748Z,9.80
2019-03-10T05:33:57.536Z,9.70
2019-03-10T05:36:29.303Z,9.70
2019-03-10T05:39:01.069Z,9.70
2019-03-10T05:41:32.573Z,9.60
2019-03-10T05:44:04.329Z,9.60
2019-03-10T05:46:36.549Z,9.60
2019-03-10T05:49:08.390Z,9.60
2019-03-10T05:51:40.074Z,9.50
2019-03-10T05:54:11.929Z,9.60
2019-03-10T05:56:44.282Z,9.60
2019-03-10T05:59:16.426Z,9.70
2019-03-10T06:01:48.468Z,9.70
2019-03-10T06:04:20.262Z,9.70
2019-03-10T06:06:51.799Z,9.70
2019-03-10T06:09:23.515Z,9.70
2019-03-10T06:11:55.449Z,9.70
2019-03-10T06:14:27.102Z,9.80
2019-03-10T06:16:59.463Z,9.80
2019-03-10T06:19:31.492Z,9.80
2019-03-10T06:22:04.280Z,9.90
2019-03-10T06:24:36.192Z,9.90
2019-03-10T06:27:08.825Z,10.00
2019-03-10T06:29:40.396Z,10.00
2019-03-10T06:32:12.099Z,10.00
2019-03-10T06:34:43.847Z,10.20
2019-03-10T06:37:16.236Z,10.30
2019-03-10T06:39:48.066Z,10.30
2019-03-10T06:42:19.702Z,10.30
2019-03-10T06:44:51.770Z,10.40
2019-03-10T06:47:24.116Z,10.30
2019-03-10T06:49:55.734Z,10.30
2019-03-10T06:52:27.385Z,10.10
2019-03-10T06:54:59.943Z,10.10
2019-03-10T06:57:33.837Z,10.10
2019-03-10T07:00:06.321Z,10.20
2019-03-10T07:02:38.009Z,10.10
2019-03-10T07:05:11.689Z,10.00
2019-03-10T07:07:43.733Z,10.00
2019-03-10T07:10:16.050Z,9.90
2019-03-10T07:12:47.959Z,9.90
2019-03-10T07:15:19.626Z,9.90
2019-03-10T07:17:51.271Z,9.90
2019-03-10T07:20:22.976Z,10.10
2019-03-10T07:22:54.903Z,10.40
2019-03-10T07:25:26.743Z,10.50
2019-03-10T07:28:20.098Z,10.80
2019-03-10T07:30:59.714Z,11.00
2019-03-10T07:33:41.947Z,11.30
2019-03-10T07:36:28.775Z,11.50
2019-03-10T07:39:14.965Z,11.80
2019-03-10T07:42:12.617Z,12.20
2019-03-10T07:45:03.699Z,12.60
2019-03-10T07:47:52.976Z,12.80
2019-03-10T07:50:39.947Z,13.10
2019-03-10T07:53:24.340Z,13.00
2019-03-10T07:56:06.880Z,12.80
2019-03-10T07:58:57.574Z,12.60
2019-03-10T08:01:51.225Z,12.50
2019-03-10T08:04:53.897Z,12.50
2019-03-10T08:07:33.648Z,12.60
2019-03-10T08:10:23.962Z,12.50
2019-03-10T08:13:14.035Z,12.80
2019-03-10T08:16:11.881Z,13.10
2019-03-10T08:19:22.015Z,13.20
2019-03-10T08:22:27.832Z,13.00
2019-03-10T08:25:17.906Z,12.80
2019-03-10T08:28:17.409Z,12.80
2019-03-10T08:31:10.700Z,12.80
2019-03-10T08:34:04.951Z,12.80
2019-03-10T08:37:04.220Z,12.70
2019-03-10T08:39:55.844Z,12.90
2019-03-10T08:42:55.651Z,12.90
2019-03-10T08:45:45.317Z,13.10
2019-03-10T08:48:36.846Z,12.90
2019-03-10T08:51:36.541Z,12.90
2019-03-10T08:54:19.041Z,12.90
2019-03-10T08:56:58.821Z,12.90
2019-03-10T08:59:40.410Z,12.60
2019-03-10T09:02:40.850Z,12.70
2019-03-10T09:05:30.172Z,12.70
2019-03-10T09:08:24.508Z,12.50
2019-03-10T09:11:06.258Z,12.60
2019-03-10T09:13:51.424Z,12.50
2019-03-10T09:16:40.607Z,12.50
2019-03-10T09:19:30.155Z,12.70
2019-03-10T09:22:08.501Z,12.90
2019-03-10T09:24:59.200Z,12.80
2019-03-10T09:27:50.286Z,12.50
2019-03-10T09:30:40.003Z,12.50
2019-03-10T09:33:28.306Z,12.50
2019-03-10T09:36:31.442Z,12.60
2019-03-10T09:39:33.551Z,12.70
2019-03-10T09:42:39.863Z,12.90
2019-03-10T09:45:29.938Z,13.20
2019-03-10T09:48:23.748Z,13.30
2019-03-10T09:51:13.215Z,13.30
2019-03-10T09:54:03.700Z,13.70
2019-03-10T09:57:01.038Z,14.00
2019-03-10T09:59:56.822Z,14.30
2019-03-10T10:02:59.620Z,14.40
2019-03-10T10:05:51.257Z,14.30
2019-03-10T10:09:25.898Z,14.30
2019-03-10T10:12:13.746Z,14.60
2019-03-10T10:14:57.634Z,15.30
2019-03-10T10:17:44.280Z,15.30
2019-03-10T10:20:37.969Z,15.90
2019-03-10T10:23:28.050Z,15.90
2019-03-10T10:26:24.965Z,15.80
2019-03-10T10:29:30.947Z,15.30
2019-03-10T10:32:18.153Z,14.90
2019-03-10T10:35:11.773Z,15.10
2019-03-10T10:38:18.193Z,16.30
2019-03-10T10:41:01.554Z,16.50
2019-03-10T10:43:58.089Z,17.10
2019-03-10T10:46:49.418Z,16.20
2019-03-10T10:49:40.310Z,16.00
2019-03-10T10:52:40.341Z,15.60
2019-03-10T10:55:39.181Z,15.10
2019-03-10T10:58:38.810Z,15.10
2019-03-10T11:01:27.052Z,15.00
2019-03-10T11:04:30.118Z,15.00
2019-03-10T11:07:33.167Z,15.40
2019-03-10T11:10:30.814Z,15.40
2019-03-10T11:13:19.022Z,15.30
2019-03-10T11:16:14.174Z,14.90
2019-03-10T11:19:13.779Z,14.80
2019-03-10T11:21:58.025Z,14.80
2019-03-10T11:24:43.488Z,14.90
2019-03-10T11:27:41.475Z,15.20
2019-03-10T11:30:33.571Z,15.40
2019-03-10T11:33:27.592Z,15.80
2019-03-10T11:36:06.377Z,16.60
2019-03-10T11:39:03.108Z,16.50
2019-03-10T11:41:53.823Z,16.20
2019-03-10T11:44:51.091Z,16.30
2019-03-10T11:47:50.672Z,16.30
2019-03-10T11:50:42.894Z,17.00
2019-03-10T11:53:36.680Z,18.30
2019-03-10T11:56:37.382Z,18.20
2019-03-10T11:59:13.548Z,18.10
2019-03-10T12:02:00.973Z,17.80
2019-03-10T12:04:44.795Z,17.00
2019-03-10T12:07:45.296Z,16.90
2019-03-10T12:10:17.590Z,16.80
2019-03-10T12:12:49.850Z,16.80
2019-03-10T12:15:21.744Z,16.50
2019-03-10T12:17:53.973Z,16.60
2019-03-10T12:20:26.046Z,16.50
2019-03-10T12:22:57.981Z,16.30
2019-03-10T12:25:30.482Z,16.20
2019-03-10T12:28:03.010Z,16.40
2019-03-10T12:30:35.099Z,16.10
2019-03-10T12:33:07.066Z,15.90
2019-03-10T12:35:39.138Z,16.20
2019-03-10T12:38:12.973Z,16.60
2019-03-10T12:40:45.036Z,16.80
2019-03-10T12:43:17.384Z,17.30
2019-03-10T12:45:49.756Z,17.40
2019-03-10T12:48:21.823Z,17.40
2019-03-10T12:50:54.337Z,17.00
2019-03-10T12:53:26.280Z,16.90
2019-03-10T12:55:58.556Z,16.40
2019-03-10T12:58:30.628Z,16.20
2019-03-10T13:01:06.675Z,15.90
2019-03-10T13:03:38.844Z,15.80
2019-03-10T13:06:10.953Z,15.90
2019-03-10T13:08:43.540Z,15.90
2019-03-10T13:11:16.726Z,15.80
2019-03-10T13:13:48.728Z,16.00
2019-03-10T13:16:21.235Z,16.10
2019-03-10T13:18:53.440Z,15.70
2019-03-10T13:21:27.346Z,15.70
2019-03-10T13:23:59.639Z,15.80
2019-03-10T13:26:31.963Z,15.60
2019-03-10T13:29:04.592Z,15.60
2019-03-10T13:31:36.629Z,15.60
2019-03-10T13:34:08.684Z,15.60
2019-03-10T13:36:41.473Z,15.40
2019-03-10T13:39:14.077Z,15.40
2019-03-10T13:41:46.460Z,15.40
2019-03-10T13:44:18.499Z,15.20
2019-03-10T13:46:50.718Z,15.00
2019-03-10T13:49:22.689Z,15.00
2019-03-10T13:51:55.187Z,14.90
2019-03-10T13:54:27.377Z,14.90
2019-03-10T13:57:00.233Z,15.00
2019-03-10T13:59:32.301Z,15.00
2019-03-10T14:02:04.358Z,15.00
2019-03-10T14:04:36.815Z,15.00
2019-03-10T14:07:10.407Z,14.90
2019-03-10T14:09:42.699Z,15.00
2019-03-10T14:12:14.984Z,15.00
2019-03-10T14:14:47.679Z,15.00
2019-03-10T14:17:20.357Z,15.10
2019-03-10T14:19:52.983Z,15.10
2019-03-10T14:22:25.567Z,15.00
2019-03-10T14:24:57.866Z,15.00
2019-03-10T14:27:31.593Z,14.90
2019-03-10T14:30:05.626Z,15.00
2019-03-10T14:32:38.526Z,14.80
2019-03-10T14:35:12.453Z,14.90
2019-03-10T14:37:46.135Z,14.80
2019-03-10T14:40:18.938Z,14.80
2019-03-10T14:42:51.801Z,14.70
2019-03-10T14:45:26.180Z,14.60
2019-03-10T14:47:58.555Z,14.50
2019-03-10T14:50:30.870Z,14.50
2019-03-10T14:53:04.821Z,14.50
2019-03-10T14:55:37.048Z,14.40
2019-03-10T14:58:10.163Z,14.30
2019-03-10T15:00:42.201Z,14.30
2019-03-10T15:03:15.025Z,14.40
2019-03-10T15:05:47.710Z,14.30
2019-03-10T15:08:20.216Z,14.40
2019-03-10T15:10:52.739Z,14.30
2019-03-10T15:13:24.780Z,14.20
2019-03-10T15:15:58.497Z,14.30
2019-03-10T15:18:30.440Z,14.20
2019-03-10T15:21:02.254Z,14.20
2019-03-10T15:23:34.307Z,14.20
2019-03-10T15:26:06.786Z,14.10
2019-03-10T15:28:39.331Z,14.20
2019-03-10T15:31:11.460Z,14.20
2019-03-10T15:33:44.609Z,14.20
2019-03-10T15:36:20.683Z,14.20
2019-03-10T15:38:51.507Z,14.10
2019-03-10T15:41:24.562Z,14.10
2019-03-10T15:43:57.330Z,14.10
2019-03-10T15:46:29.843Z,14.20
2019-03-10T15:49:02.871Z,14.10
2019-03-10T15:51:35.649Z,14.10
2019-03-10T15:54:09.286Z,14.10
2019-03-10T15:56:43.309Z,14.10
2019-03-10T15:59:18.554Z,14.10
2019-03-10T16:01:51.447Z,14.10
2019-03-10T16:04:28.089Z,14.10
2019-03-10T16:07:01.472Z,14.10
2019-03-10T16:09:35.235Z,14.10
2019-03-10T16:12:09.165Z,14.10
2019-03-10T16:14:43.028Z,14.00
2019-03-10T16:17:17.483Z,14.00
2019-03-10T16:19:50.635Z,14.00
2019-03-10T16:22:24.021Z,13.90
2019-03-10T16:24:57.740Z,13.80
2019-03-10T16:27:31.135Z,13.80
2019-03-10T16:30:04.976Z,13.90
2019-03-10T16:32:39.117Z,13.80
2019-03-10T16:35:13.610Z,13.80
2019-03-10T16:37:47.554Z,13.80
2019-03-10T16:40:21.248Z,13.80
2019-03-10T16:42:54.712Z,13.70
2019-03-10T16:45:28.226Z,13.70
2019-03-10T16:48:02.017Z,13.60
2019-03-10T16:50:35.953Z,13.50
2019-03-10T16:53:10.032Z,13.40
2019-03-10T16:55:43.630Z,13.40
2019-03-10T16:58:17.578Z,13.30
2019-03-10T17:00:51.059Z,13.30
2019-03-10T17:03:24.161Z,13.40
2019-03-10T17:05:57.984Z,13.30
2019-03-10T17:08:31.723Z,13.30
2019-03-10T17:11:05.349Z,13.30
2019-03-10T17:13:39.538Z,13.20
2019-03-10T17:16:13.455Z,13.10
2019-03-10T17:18:47.635Z,13.10
2019-03-10T17:21:21.971Z,13.00
2019-03-10T17:23:55.613Z,12.90
2019-03-10T17:26:29.093Z,12.90
2019-03-10T17:29:02.393Z,12.80
2019-03-10T17:31:36.592Z,12.80
2019-03-10T17:34:10.678Z,12.80
2019-03-10T17:36:45.209Z,12.80
2019-03-10T17:39:18.881Z,12.70
2019-03-10T17:41:52.333Z,12.80
2019-03-10T17:44:26.488Z,12.70
2019-03-10T17:47:01.692Z,12.70
2019-03-10T17:49:38.150Z,12.70
2019-03-10T17:52:14.744Z,12.70
2019-03-10T17:54:49.318Z,12.60
2019-03-10T17:57:23.487Z,12.70
2019-03-10T17:59:58.427Z,12.70
2019-03-10T18:02:32.121Z,12.50
2019-03-10T18:05:06.432Z,12.50
2019-03-10T18:07:40.485Z,12.50
2019-03-10T18:10:13.132Z,12.50
2019-03-10T18:12:46.002Z,12.50
2019-03-10T18:15:18.491Z,12.50
2019-03-10T18:17:51.399Z,12.40
2019-03-10T18:20:24.369Z,12.40
2019-03-10T18:22:59.214Z,12.40
2019-03-10T18:25:31.300Z,12.40
2019-03-10T18:28:06.070Z,12.40
2019-03-10T18:30:39.087Z,12.30
2019-03-10T18:33:12.245Z,12.30
2019-03-10T18:35:45.460Z,12.30
2019-03-10T18:38:18.330Z,12.20
2019-03-10T18:40:51.090Z,12.30
2019-03-10T18:43:25.137Z,12.30
2019-03-10T18:46:00.055Z,12.20
2019-03-10T18:48:33.153Z,12.20
2019-03-10T18:51:05.760Z,12.30
2019-03-10T18:53:39.379Z,12.30
2019-03-10T18:56:13.063Z,12.30
2019-03-10T18:58:46.424Z,12.30
2019-03-10T19:01:19.040Z,12.30
2019-03-10T19:03:51.383Z,12.20
2019-03-10T19:06:24.788Z,12.10
2019-03-10T19:08:57.809Z,12.10
2019-03-10T19:11:30.931Z,12.10
2019-03-10T19:14:03.787Z,12.20
2019-03-10T19:16:36.207Z,12.20
2019-03-10T19:19:09.969Z,12.30
2019-03-10T19:21:43.164Z,12.20
2019-03-10T19:24:16.061Z,12.20
2019-03-10T19:26:50.157Z,12.10
2019-03-10T19:29:22.805Z,11.90
2019-03-10T19:31:56.211Z,11.90
2019-03-10T19:34:28.795Z,11.80
2019-03-10T19:37:01.324Z,11.80
2019-03-10T19:39:33.697Z,11.80
2019-03-10T19:42:06.332Z,11.70
2019-03-10T19:44:38.662Z,11.70
2019-03-10T19:47:11.360Z,11.70
2019-03-10T19:49:44.077Z,11.70
2019-03-10T19:52:18.084Z,11.60
2019-03-10T19:54:51.161Z,11.70
2019-03-10T19:57:24.527Z,11.70
2019-03-10T19:59:56.909Z,11.70
2019-03-10T20:02:29.608Z,11.80
2019-03-10T20:05:01.896Z,11.80
2019-03-10T20:07:34.495Z,11.90
2019-03-10T20:10:07.200Z,11.80
2019-03-10T20:12:39.725Z,11.90
2019-03-10T20:15:15.161Z,11.80
2019-03-10T20:17:52.419Z,11.80
2019-03-10T20:20:26.192Z,11.80
2019-03-10T20:23:00.862Z,11.90
2019-03-10T20:25:32.446Z,11.80
2019-03-10T20:28:05.027Z,11.80
2019-03-10T20:30:38.250Z,11.90
2019-03-10T20:33:11.130Z,11.90
2019-03-10T20:35:43.481Z,11.90
2019-03-10T20:38:16.713Z,11.90
2019-03-10T20:40:48.688Z,11.90
2019-03-10T20:43:20.981Z,11.90
2019-03-10T20:45:53.554Z,11.90
2019-03-10T20:48:25.933Z,11.90
2019-03-10T20:50:58.478Z,12.00
2019-03-10T20:53:32.702Z,12.00
2019-03-10T20:56:07.704Z,12.00
2019-03-10T20:58:40.080Z,12.00
2019-03-10T21:01:12.264Z,12.10
2019-03-10T21:03:44.682Z,12.10
2019-03-10T21:06:17.164Z,12.00
2019-03-10T21:08:49.600Z,12.00
2019-03-10T21:11:22.296Z,12.00
2019-03-10T21:13:54.173Z,12.10
2019-03-10T21:16:26.989Z,12.00
2019-03-10T21:18:59.159Z,12.00
2019-03-10T21:21:31.653Z,12.00
2019-03-10T21:24:04.051Z,12.10
2019-03-10T21:26:36.174Z,12.00
2019-03-10T21:29:08.505Z,11.90
2019-03-10T21:31:40.921Z,11.90
2019-03-10T21:34:15.380Z,11.80
2019-03-10T21:36:48.414Z,11.70
2019-03-10T21:39:20.639Z,11.60
2019-03-10T21:41:52.986Z,11.60
2019-03-10T21:44:26.844Z,11.50
2019-03-10T21:46:59.530Z,11.60
2019-03-10T21:49:31.647Z,11.50
2019-03-10T21:52:04.332Z,11.50
2019-03-10T21:54:37.340Z,11.50
2019-03-10T21:57:11.942Z,11.40
2019-03-10T21:59:44.005Z,11.50
2019-03-10T22:02:17.029Z,11.50
2019-03-10T22:04:49.112Z,11.60
2019-03-10T22:07:22.208Z,11.50
2019-03-10T22:09:54.103Z,11.40
2019-03-10T22:12:26.574Z,11.40
2019-03-10T22:14:58.571Z,11.60
2019-03-10T22:17:30.925Z,11.60
2019-03-10T22:20:02.994Z,11.60
2019-03-10T22:22:37.078Z,11.60
2019-03-10T22:25:12.788Z,11.50
2019-03-10T22:27:42.398Z,11.50
2019-03-10T22:30:16.612Z,11.50
2019-03-10T22:32:48.515Z,11.50
2019-03-10T22:35:20.800Z,11.50
2019-03-10T22:37:53.249Z,11.50
2019-03-10T22:40:25.324Z,11.50
2019-03-10T22:42:57.421Z,11.50
2019-03-10T22:45:29.387Z,11.60
2019-03-10T22:48:02.021Z,11.60
2019-03-10T22:50:33.906Z,11.60
2019-03-10T22:53:05.889Z,11.60
2019-03-10T22:55:38.105Z,11.60
2019-03-10T22:58:10.049Z,11.70
2019-03-10T23:00:46.722Z,11.70
2019-03-10T23:03:18.963Z,11.60
2019-03-10T23:05:50.869Z,11.60
2019-03-10T23:08:22.947Z,11.60
2019-03-10T23:10:54.777Z,11.60
2019-03-10T23:13:26.956Z,11.60
2019-03-10T23:15:59.289Z,11.60
2019-03-10T23:18:31.317Z,11.60
2019-03-10T23:21:03.363Z,11.50
2019-03-10T23:23:35.600Z,11.50
2019-03-10T23:26:07.395Z,11.50
2019-03-10T23:28:39.495Z,11.40
2019-03-10T23:31:11.842Z,11.40
2019-03-10T23:33:44.159Z,11.40
2019-03-10T23:36:15.890Z,11.40
2019-03-10T23:38:47.697Z,11.40
2019-03-10T23:41:19.669Z,11.40
2019-03-10T23:43:51.860Z,11.40
2019-03-10T23:46:23.967Z,11.40
2019-03-10T23:48:56.220Z,11.50
2019-03-10T23:51:28.278Z,11.50
2019-03-10T23:54:00.256Z,11.50
2019-03-10T23:56:32.112Z,11.50
2019-03-10T23:59:04.083Z,11.50
